Aérodrome :
LOGIN :

S'inscrire | Disclaimer

   EN    FR    IT 

 










Légende :    VFR   VFR Marginal   IFR   IFR Intensif   IFR Très Intensif
Visi : 
Plafond : 
>= 8 km
>= 3000ft
5 à 8 km
1000 à 3000 ft
1500m à 5 km
500 à 1000 ft
800 à 1500m
200 à 500 ft
< 800m
< 200 ft
Symboles :   Orages  Brouillard  Fortes neiges  Fortes précipitations  Vent > 20 kt
SIGMETs :   Divers  Orages  Givrage  Turbulence  Onde Orograph.  Cendres Volcan.






- Altitude de l'aérodrome : 55 ft
- Code IATA : DSA


EGCN - Robin Hood Doncaster Sheffield

DERNIER METAR :
  • 092120Z 24005KT CAVOK 01/M00 Q1023

METARs EXPIRÉS :
  • 092050Z 24006KT CAVOK 02/M00 Q1023
  • 092020Z 23005KT CAVOK 01/M01 Q1022
  • 091950Z 24005KT CAVOK 00/M02 Q1022
  • 091920Z 26005KT CAVOK 01/M01 Q1022
  • 091850Z 26006KT CAVOK 02/M01 Q1022

TAF TAF EGCN
Valide du 09 à 18h jusqu'au 10 à 18h UTC


091704Z 0918/1018 30010KT CAVOK
BECMG 0918/0921 24006KT
BECMG 1002/1005 18010KT
PROB30
TEMPO 1005/1008 19015G25KT
BECMG 1008/1010 19018G30KT FEW014 BKN020
TEMPO 1009/1017 19026G40KT 6000 RA BKN012
BECMG 1016/1018 26015G25KT
PROB30
TEMPO 1016/1018 4000 +RA BKN008



MET'MAP, la Météo Aéronautique d'un coup d'oeil ! - Copyright ORBIFLY Décembre 2007 - Disclaimer

ORBIFLY MET'MAP TEAM :

Programmation & Développement : Alexandra Zaïnal
Sur une idée originale de : Baudouin d'Aumeries
Assistance à la programmation : Marc-Olivier Méhu
Soutien technique & logistique : Manuel Goepfert

Contact : metmap@orbifly.com




SOURCES & CREDITS :

   NOAA